Terminal Aerodrome Forecast
Issued by NWS Charleston, WV

Current Version | Previous Version | Graphics & Text | Print | Product List | Glossary On
Versions: 1 2 3 4 5 6 7 8 9 10 11 12 13 14 15 16 17 18 19 20 21 22 23 24 25 26 27 28 29 30
000
FTUS41 KRLX 191300 AAA
TAFBKW
TAF AMD
KBKW 191358Z 1914/2012 24005KT 6SM HZ FEW008 BKN015
     FM191600 32005KT P6SM BKN025
     FM192100 27005KT P6SM BKN035
     FM200000 00000KT P6SM VCTS BKN060CB
     FM200200 00000KT P6SM VCTS BKN025CB
     FM200900 00000KT 6SM BR BKN008=

USA.gov is the U.S. government's official web portal to all federal, state and local government web resources and services.